Time;durP1;ratioP1;P1;durP2;ratioP2;P2;SDS_P1;SDS_P2;PMS_P1;PMS_P2;Temp;Humidity;BMP_temperature;BMP_pressure;BME280_temperature;BME280_humidity;BME280_pressure;Samples;Min_cycle;Max_cycle;Signal;HPM_P1;HPM_P2
2020/12/26 00:00:42;;;;;;;10.37;9.47;;;;;;;-0.78;82.76;101176.06;5067471;28;20244;-75
2020/12/26 00:03:08;;;;;;;11.27;10.27;;;;;;;-0.77;82.87;101172.69;5068863;28;20261;-76
2020/12/26 00:05:35;;;;;;;9.53;8.63;;;;;;;-0.72;82.97;101171.19;5068405;28;20227;-75
2020/12/26 00:08:01;;;;;;;9.90;9.00;;;;;;;-0.75;83.21;101159.13;5069317;28;20287;-75
2020/12/26 00:10:28;;;;;;;10.30;9.30;;;;;;;-0.73;83.46;101159.16;5069805;28;20732;-75
2020/12/26 00:12:53;;;;;;;9.43;8.57;;;;;;;-0.77;83.30;101165.88;5070943;28;20201;-75
2020/12/26 00:15:19;;;;;;;10.60;9.60;;;;;;;-0.84;83.94;101166.47;5069450;28;20247;-75
2020/12/26 00:17:45;;;;;;;10.23;9.23;;;;;;;-0.82;83.66;101167.38;5071398;28;20627;-75
2020/12/26 00:20:11;;;;;;;10.87;9.80;;;;;;;-0.87;84.44;101161.22;5070170;28;20245;-75
2020/12/26 00:22:37;;;;;;;11.20;10.13;;;;;;;-0.86;84.29;101168.94;5071136;28;20195;-75
2020/12/26 00:25:04;;;;;;;11.13;10.03;;;;;;;-0.90;84.98;101164.53;5068994;28;20257;-74
2020/12/26 00:27:30;;;;;;;16.77;11.27;;;;;;;-0.88;85.08;101167.16;5071474;28;20193;-75
2020/12/26 00:29:56;;;;;;;10.43;9.43;;;;;;;-0.88;85.51;101160.34;5069754;28;20592;-75
2020/12/26 00:32:23;;;;;;;13.00;9.57;;;;;;;-0.87;85.17;101167.22;5071309;28;20199;-74
2020/12/26 00:34:48;;;;;;;11.53;10.53;;;;;;;-0.83;85.06;101157.97;5069656;28;20238;-75
2020/12/26 00:37:16;;;;;;;12.07;10.03;;;;;;;-0.82;84.69;101154.56;5070973;28;20231;-74
2020/12/26 00:39:41;;;;;;;10.33;9.33;;;;;;;-0.82;85.34;101160.56;5068601;28;20222;-75
2020/12/26 00:42:07;;;;;;;10.73;9.60;;;;;;;-0.84;85.46;101162.19;5070781;28;20664;-75
2020/12/26 00:44:34;;;;;;;9.93;8.97;;;;;;;-0.77;85.02;101165.00;5070138;28;20264;-74
2020/12/26 00:47:00;;;;;;;10.07;9.10;;;;;;;-0.84;84.69;101156.19;5070915;28;20204;-75
2020/12/26 00:49:26;;;;;;;10.13;9.23;;;;;;;-0.82;84.62;101167.38;5069965;28;20306;-75
2020/12/26 00:51:51;;;;;;;10.17;9.27;;;;;;;-0.77;84.31;101171.03;5071113;28;20215;-75
2020/12/26 00:54:17;;;;;;;9.93;8.93;;;;;;;-0.84;83.96;101177.56;5069086;28;20255;-75
2020/12/26 00:56:43;;;;;;;11.13;8.93;;;;;;;-0.87;84.05;101182.59;5070623;28;20206;-75
2020/12/26 00:59:09;;;;;;;9.73;8.50;;;;;;;-0.84;84.07;101176.72;5070097;28;20203;-75
2020/12/26 01:01:36;;;;;;;9.03;8.13;;;;;;;-0.83;83.88;101179.34;5071220;28;20204;-75
2020/12/26 01:04:01;;;;;;;11.00;8.70;;;;;;;-0.80;85.05;101174.31;5069928;28;20236;-75
2020/12/26 01:06:27;;;;;;;9.97;8.63;;;;;;;-0.78;84.18;101179.50;5070712;28;20657;-75
2020/12/26 01:08:53;;;;;;;9.60;8.03;;;;;;;-0.73;83.37;101178.00;5073979;28;20231;-75
2020/12/26 01:11:20;;;;;;;9.20;7.97;;;;;;;-0.74;83.40;101183.94;5074679;28;20210;-74
2020/12/26 01:13:45;;;;;;;9.13;7.87;;;;;;;-0.75;83.19;101181.31;5073435;28;20612;-75
2020/12/26 01:16:11;;;;;;;8.03;7.13;;;;;;;-0.80;83.42;101179.44;5073571;28;20299;-75
2020/12/26 01:18:38;;;;;;;15.60;9.43;;;;;;;-0.79;83.38;101180.34;5074519;28;20203;-75
2020/12/26 01:21:04;;;;;;;10.23;8.00;;;;;;;-0.78;83.66;101184.63;5073897;28;20211;-75
2020/12/26 01:23:30;;;;;;;9.17;7.90;;;;;;;-0.74;83.88;101173.69;5074223;28;20196;-75
2020/12/26 01:26:00;;;;;;;9.13;7.83;;;;;;;-0.75;83.59;101171.06;5073870;28;20219;-75
2020/12/26 01:28:26;;;;;;;8.23;7.43;;;;;;;-0.76;83.14;101167.63;5074308;28;20227;-75
2020/12/26 01:30:51;;;;;;;7.93;7.20;;;;;;;-0.76;83.26;101161.63;5073230;28;20343;-75
2020/12/26 01:33:17;;;;;;;7.73;7.03;;;;;;;-0.78;83.10;101163.25;5074524;28;20245;-75
2020/12/26 01:35:44;;;;;;;8.20;6.40;;;;;;;-0.82;83.22;101162.25;5072960;28;20258;-75
2020/12/26 01:38:10;;;;;;;8.50;6.33;;;;;;;-0.86;83.26;101165.53;5074381;28;20208;-75
2020/12/26 01:40:36;;;;;;;7.63;6.93;;;;;;;-0.85;82.92;101165.59;5072732;28;20207;-75
2020/12/26 01:43:02;;;;;;;7.77;7.03;;;;;;;-0.88;83.33;101167.16;5074317;28;20212;-75
2020/12/26 01:45:28;;;;;;;9.63;7.73;;;;;;;-0.90;83.62;101186.72;5072859;28;20227;-75
2020/12/26 01:47:54;;;;;;;8.77;7.20;;;;;;;-0.86;83.53;101174.06;5074353;28;20208;-75
2020/12/26 01:50:21;;;;;;;7.83;7.20;;;;;;;-0.86;83.39;101178.34;5073064;28;20222;-75
2020/12/26 01:52:48;;;;;;;8.07;7.20;;;;;;;-0.80;82.72;101179.44;5074121;28;20250;-75
2020/12/26 01:55:15;;;;;;;8.93;7.47;;;;;;;-0.81;83.12;101181.97;5072277;28;20228;-74
2020/12/26 01:57:50;;;;;;;8.83;7.00;;;;;;;-0.80;82.84;101191.38;5073681;28;20225;-75
2020/12/26 02:00:16;;;;;;;8.03;7.30;;;;;;;-0.72;82.57;101184.00;5072943;28;20203;-74
2020/12/26 02:02:42;;;;;;;7.90;6.93;;;;;;;-0.69;82.81;101173.88;5073796;28;20216;-75
2020/12/26 02:05:08;;;;;;;7.23;6.60;;;;;;;-0.69;82.53;101171.31;5066714;28;20219;-75
2020/12/26 02:07:34;;;;;;;8.70;7.80;;;;;;;-0.73;83.46;101180.56;5073568;28;20284;-74
2020/12/26 02:10:01;;;;;;;9.63;8.30;;;;;;;-0.66;83.40;101182.53;5066530;28;20224;-74
2020/12/26 02:12:27;;;;;;;8.37;7.57;;;;;;;-0.65;83.57;101170.63;5073756;28;20199;-75
2020/12/26 02:14:53;;;;;;;7.70;6.90;;;;;;;-0.62;83.66;101165.59;5071833;28;20665;-75
2020/12/26 02:17:24;;;;;;;10.13;7.90;;;;;;;-0.60;84.16;101171.66;5073748;28;20195;-75
2020/12/26 02:19:49;;;;;;;8.43;7.63;;;;;;;-0.61;84.16;101167.34;5071388;28;20663;-75
2020/12/26 02:22:15;;;;;;;8.60;7.70;;;;;;;-0.60;84.94;101166.53;5073192;28;20203;-75
2020/12/26 02:24:42;;;;;;;11.43;8.80;;;;;;;-0.54;84.05;101168.44;5072311;28;20235;-75
2020/12/26 02:27:08;;;;;;;9.20;8.30;;;;;;;-0.51;84.00;101177.13;5073383;28;20196;-75
2020/12/26 02:29:34;;;;;;;11.53;7.90;;;;;;;-0.49;84.29;101177.19;5072763;28;20300;-75
2020/12/26 02:31:59;;;;;;;7.70;6.90;;;;;;;-0.47;84.14;101167.88;5073162;28;20258;-74
2020/12/26 02:34:25;;;;;;;11.00;8.57;;;;;;;-0.55;84.93;101192.34;5072321;28;20256;-75
2020/12/26 02:36:51;;;;;;;9.73;8.73;;;;;;;-0.49;85.41;101172.94;5072774;28;20207;-75
2020/12/26 02:39:17;;;;;;;10.90;8.97;;;;;;;-0.39;85.69;101181.00;5071735;28;20281;-74
2020/12/26 02:41:46;;;;;;;10.57;9.47;;;;;;;-0.35;86.08;101182.84;5073311;28;20242;-75
2020/12/26 02:44:12;;;;;;;9.60;8.60;;;;;;;-0.25;86.40;101179.81;5072263;28;20224;-75
2020/12/26 02:46:38;;;;;;;10.03;9.03;;;;;;;-0.23;86.61;101175.59;5073261;28;20234;-75
2020/12/26 02:49:04;;;;;;;13.30;11.17;;;;;;;-0.20;86.75;101175.69;5072505;28;20632;-75
2020/12/26 02:51:29;;;;;;;12.77;10.03;;;;;;;-0.11;86.32;101170.91;5072798;28;20658;-75
2020/12/26 02:53:55;;;;;;;12.10;10.50;;;;;;;-0.11;86.64;101164.91;5073375;28;20220;-75
2020/12/26 02:56:22;;;;;;;11.23;10.13;;;;;;;-0.02;86.32;101168.69;5073035;28;20200;-75
2020/12/26 02:58:48;;;;;;;10.23;9.03;;;;;;;-0.01;86.38;101167.00;5072970;28;20192;-75
2020/12/26 03:01:14;;;;;;;14.30;12.10;;;;;;;0.00;87.05;101163.63;5073516;28;20204;-75
2020/12/26 03:03:40;;;;;;;10.10;9.20;;;;;;;0.07;87.18;101160.44;5072384;28;20204;-75
2020/12/26 03:06:06;;;;;;;10.30;9.30;;;;;;;0.11;86.24;101164.84;5067579;28;20208;-75
2020/12/26 03:08:31;;;;;;;13.17;11.70;;;;;;;0.12;86.47;101164.03;5072871;28;20239;-75
2020/12/26 03:10:57;;;;;;;12.47;10.97;;;;;;;0.18;86.92;101163.38;5071193;28;20652;-75
2020/12/26 03:13:23;;;;;;;14.43;11.83;;;;;;;0.28;85.94;101159.41;5072722;28;20618;-75
2020/12/26 03:15:50;;;;;;;16.67;12.20;;;;;;;0.28;86.38;101162.00;5069681;28;20224;-75
2020/12/26 03:18:16;;;;;;;12.87;11.67;;;;;;;0.30;86.51;101155.25;5072288;28;20201;-75
2020/12/26 03:20:41;;;;;;;11.93;10.20;;;;;;;0.34;86.31;101159.66;5071006;28;20227;-75
2020/12/26 03:23:07;;;;;;;16.70;11.43;;;;;;;0.29;87.09;101153.47;5072150;28;20912;-75
2020/12/26 03:25:33;;;;;;;12.33;10.97;;;;;;;0.36;86.19;101156.31;5070279;28;20643;-75
2020/12/26 03:27:59;;;;;;;13.10;11.80;;;;;;;0.42;86.44;101155.66;5072063;28;20208;-75
2020/12/26 03:30:25;;;;;;;12.23;10.77;;;;;;;0.47;86.19;101155.78;5070864;28;20228;-75
2020/12/26 03:32:52;;;;;;;11.70;9.77;;;;;;;0.47;86.27;101155.78;5071674;28;20283;-75
2020/12/26 03:35:17;;;;;;;16.80;11.03;;;;;;;0.49;86.16;101155.03;5070817;28;20286;-75
2020/12/26 03:37:44;;;;;;;16.90;10.77;;;;;;;0.48;86.11;101148.16;5072076;28;20205;-75
2020/12/26 03:40:09;;;;;;;11.80;10.47;;;;;;;0.43;85.84;101152.25;5071359;28;20203;-75
2020/12/26 03:42:35;;;;;;;14.23;10.97;;;;;;;0.43;85.86;101157.38;5072156;28;20254;-75
2020/12/26 03:45:01;;;;;;;13.90;11.60;;;;;;;0.45;86.06;101147.16;5070189;28;20234;-75
2020/12/26 03:47:27;;;;;;;14.73;11.87;;;;;;;0.51;85.75;101148.25;5071852;28;20250;-75
2020/12/26 03:49:54;;;;;;;15.53;12.13;;;;;;;0.45;86.23;101149.75;5071027;28;20276;-75
2020/12/26 03:52:20;;;;;;;12.90;11.60;;;;;;;0.41;86.17;101148.75;5071875;28;20560;-75
2020/12/26 03:54:45;;;;;;;14.10;12.10;;;;;;;0.44;86.60;101156.56;5070042;28;20225;-75
2020/12/26 03:57:12;;;;;;;13.50;11.67;;;;;;;0.45;86.57;101157.44;5071482;28;20200;-75
2020/12/26 03:59:38;;;;;;;14.03;12.47;;;;;;;0.41;86.00;101155.59;5070562;28;20197;-75
2020/12/26 04:02:04;;;;;;;13.30;12.00;;;;;;;0.44;86.17;101158.25;5071692;28;20684;-75
2020/12/26 04:04:30;;;;;;;13.67;12.23;;;;;;;0.38;86.53;101154.66;5070429;28;20595;-75
2020/12/26 04:06:56;;;;;;;12.97;11.60;;;;;;;0.40;86.18;101152.16;5071494;28;20212;-75
2020/12/26 04:09:22;;;;;;;14.03;11.80;;;;;;;0.43;86.51;101153.94;5070265;28;20225;-75
2020/12/26 04:11:48;;;;;;;13.00;11.60;;;;;;;0.42;86.51;101147.06;5071704;28;20201;-75
2020/12/26 04:14:14;;;;;;;11.80;10.57;;;;;;;0.48;86.43;101142.16;5070321;28;20223;-75
2020/12/26 04:16:40;;;;;;;12.60;10.50;;;;;;;0.47;85.68;101136.13;5071186;28;20200;-75
2020/12/26 04:19:06;;;;;;;11.63;10.50;;;;;;;0.55;85.94;101136.38;5070343;28;20288;-75
2020/12/26 04:21:32;;;;;;;11.30;10.17;;;;;;;0.55;85.63;101141.50;5071279;28;20199;-75
2020/12/26 04:23:59;;;;;;;11.23;10.00;;;;;;;0.60;85.02;101134.84;5070243;28;20227;-75
2020/12/26 04:26:24;;;;;;;11.60;10.33;;;;;;;0.60;85.75;101134.84;5070971;28;20207;-75
2020/12/26 04:28:51;;;;;;;12.17;11.10;;;;;;;0.58;85.45;101127.06;5070782;28;20291;-75
2020/12/26 04:31:17;;;;;;;13.27;12.17;;;;;;;0.60;85.72;101122.00;5064986;28;20275;-75
2020/12/26 04:33:43;;;;;;;12.87;11.67;;;;;;;0.59;85.76;101118.56;5070589;28;20677;-75
2020/12/26 04:36:09;;;;;;;12.27;11.20;;;;;;;0.52;86.20;101116.59;5071083;28;20244;-75
2020/12/26 04:38:35;;;;;;;13.03;11.73;;;;;;;0.56;86.57;101121.03;5071256;28;20722;-75
2020/12/26 04:41:02;;;;;;;14.10;12.63;;;;;;;0.53;87.30;101125.19;5070555;28;20207;-75
2020/12/26 04:43:29;;;;;;;14.47;13.13;;;;;;;0.56;87.35;101127.88;5074828;28;20204;-75
2020/12/26 04:45:57;;;;;;;13.93;12.57;;;;;;;0.63;87.65;101126.34;5074417;28;20217;-75
2020/12/26 04:48:24;;;;;;;15.83;12.13;;;;;;;0.71;87.45;101118.06;5075030;28;20201;-75
2020/12/26 04:50:53;;;;;;;14.57;13.07;;;;;;;0.77;86.70;101118.28;5074570;28;20705;-75
2020/12/26 04:53:20;;;;;;;13.37;12.17;;;;;;;0.75;87.08;101108.75;5074795;28;20219;-75
2020/12/26 04:55:48;;;;;;;14.70;12.53;;;;;;;0.76;87.11;101101.09;5073407;28;20223;-75
2020/12/26 04:58:16;;;;;;;18.30;13.70;;;;;;;0.73;87.45;101102.69;5074969;28;20230;-75
2020/12/26 05:00:42;;;;;;;16.53;11.77;;;;;;;0.79;87.35;101097.75;5074421;28;20197;-75
2020/12/26 05:03:10;;;;;;;14.73;13.13;;;;;;;0.82;87.07;101085.00;5074835;28;20662;-75
2020/12/26 05:05:36;;;;;;;14.63;13.23;;;;;;;0.88;86.59;101081.75;5070412;28;20256;-75
2020/12/26 05:08:03;;;;;;;13.43;12.23;;;;;;;0.92;86.47;101078.47;5075009;28;20197;-75
2020/12/26 05:10:29;;;;;;;14.60;13.30;;;;;;;0.93;86.71;101072.47;5073335;28;20224;-75
2020/12/26 05:12:55;;;;;;;13.47;12.20;;;;;;;0.84;86.88;101074.78;5074812;28;20246;-75
2020/12/26 05:15:23;;;;;;;14.17;12.87;;;;;;;0.86;87.05;101070.56;5072653;28;20287;-75
2020/12/26 05:17:48;;;;;;;13.40;12.00;;;;;;;0.84;87.13;101061.94;5074826;28;20232;-75
2020/12/26 05:20:14;;;;;;;12.90;11.60;;;;;;;0.82;86.74;101066.16;5073606;28;20673;-75
2020/12/26 05:22:40;;;;;;;13.03;11.73;;;;;;;0.83;86.30;101060.19;5074321;28;20232;-75
2020/12/26 05:25:08;;;;;;;12.80;11.70;;;;;;;0.87;86.98;101065.44;5073018;28;20239;-75
2020/12/26 05:27:34;;;;;;;14.03;11.50;;;;;;;0.97;87.17;101058.88;5074347;28;20201;-75
2020/12/26 05:30:01;;;;;;;14.70;13.30;;;;;;;1.02;86.20;101057.34;5072945;28;20220;-75
2020/12/26 05:32:28;;;;;;;11.97;10.97;;;;;;;1.01;86.76;101060.72;5074469;28;20205;-75
2020/12/26 05:35:02;;;;;;;12.60;11.40;;;;;;;0.97;86.53;101069.16;5061213;28;20243;-75
2020/12/26 05:37:30;;;;;;;12.30;11.17;;;;;;;0.96;86.85;101060.59;5074369;28;20242;-75
2020/12/26 05:39:58;;;;;;;13.00;11.80;;;;;;;0.97;86.70;101053.75;5072654;28;20212;-75
2020/12/26 05:42:25;;;;;;;12.63;11.57;;;;;;;1.01;86.58;101058.16;5074228;28;20196;-75
2020/12/26 05:44:51;;;;;;;12.47;11.17;;;;;;;1.02;86.13;101047.06;5071595;28;20301;-75
2020/12/26 05:47:16;;;;;;;13.40;12.03;;;;;;;1.02;86.44;101048.75;5072038;28;20690;-75
2020/12/26 05:49:43;;;;;;;14.73;11.63;;;;;;;0.94;86.69;101043.41;5075031;28;20722;-76
2020/12/26 05:52:10;;;;;;;13.10;12.00;;;;;;;0.94;87.15;101051.09;5074004;28;20203;-75
2020/12/26 05:54:36;;;;;;;14.10;12.47;;;;;;;1.00;87.49;101048.72;5071451;28;20217;-75
2020/12/26 05:57:13;;;;;;;12.70;11.53;;;;;;;1.03;86.90;101051.38;5073558;28;20727;-75
2020/12/26 05:59:40;;;;;;;12.33;11.13;;;;;;;1.11;87.46;101067.00;5073656;28;20204;-77
2020/12/26 06:02:20;;;;;;;11.60;10.50;;;;;;;1.17;86.80;101067.22;5073327;28;20682;-75
2020/12/26 06:04:51;;;;;;;12.30;11.03;;;;;;;1.21;86.25;101071.63;5072353;28;20222;-76
2020/12/26 06:07:21;;;;;;;11.90;10.90;;;;;;;1.15;87.08;101066.28;5066924;28;20207;-75
2020/12/26 06:09:51;;;;;;;13.17;11.80;;;;;;;1.08;87.59;101059.22;5072682;28;20224;-75
2020/12/26 06:12:17;;;;;;;12.73;11.53;;;;;;;1.07;87.22;101057.47;5066457;28;20201;-75
2020/12/26 06:14:46;;;;;;;12.23;11.03;;;;;;;1.10;87.45;101062.72;5072931;28;20229;-76
2020/12/26 06:17:12;;;;;;;12.03;10.83;;;;;;;1.10;87.16;101068.72;5073436;28;20840;-76
2020/12/26 06:19:42;;;;;;;11.03;10.13;;;;;;;1.21;87.30;101066.47;5072681;28;20200;-75
2020/12/26 06:22:09;;;;;;;12.33;11.17;;;;;;;1.16;87.27;101066.31;5073015;28;20204;-76
2020/12/26 06:24:36;;;;;;;12.63;11.43;;;;;;;1.19;86.85;101063.00;5070960;28;20725;-77
2020/12/26 06:27:09;;;;;;;13.17;12.00;;;;;;;1.10;87.62;101068.72;5072859;28;20204;-77
2020/12/26 06:29:36;;;;;;;11.67;10.10;;;;;;;1.18;86.87;101074.09;5072821;28;20231;-77
2020/12/26 06:32:06;;;;;;;11.07;10.17;;;;;;;1.25;87.40;101075.13;5073645;28;20193;-77
2020/12/26 06:34:33;;;;;;;10.23;9.43;;;;;;;1.26;87.04;101071.75;5073823;28;20223;-77
2020/12/26 06:36:59;;;;;;;11.13;10.23;;;;;;;1.33;87.22;101071.13;5076006;28;20630;-77
2020/12/26 06:39:30;;;;;;;11.90;9.80;;;;;;;1.34;86.69;101076.28;5075781;28;20197;-78
2020/12/26 06:42:14;;;;;;;11.47;10.50;;;;;;;1.38;87.11;101077.25;5074160;28;20677;-77
2020/12/26 06:44:40;;;;;;;11.20;10.20;;;;;;;1.35;86.91;101067.75;5071487;28;20228;-77
2020/12/26 06:47:06;;;;;;;12.17;11.10;;;;;;;1.33;86.86;101064.25;5074016;28;20212;-77
2020/12/26 06:49:32;;;;;;;10.70;9.70;;;;;;;1.35;86.10;101062.59;5075230;28;20220;-78
2020/12/26 06:51:59;;;;;;;9.80;8.47;;;;;;;1.39;86.70;101061.00;5074433;28;20197;-77
2020/12/26 06:54:39;;;;;;;11.00;10.00;;;;;;;1.44;86.18;101058.53;5073224;28;20224;-77
2020/12/26 06:57:05;;;;;;;10.97;9.87;;;;;;;1.43;86.51;101057.69;5075164;28;20238;-78
2020/12/26 06:59:31;;;;;;;10.50;9.50;;;;;;;1.44;86.18;101058.53;5075014;28;20203;-77
2020/12/26 07:02:04;;;;;;;11.60;9.63;;;;;;;1.45;86.20;101062.84;5077191;28;20204;-78
2020/12/26 07:04:37;;;;;;;15.70;13.23;;;;;;;1.38;85.97;101067.81;5076449;28;20233;-78
2020/12/26 07:07:03;;;;;;;13.57;10.33;;;;;;;1.33;85.61;101068.53;5077964;28;20201;-78
2020/12/26 07:09:46;;;;;;;13.27;8.70;;;;;;;1.24;86.38;101061.41;5077130;28;20221;-78
2020/12/26 07:12:13;;;;;;;12.80;11.50;;;;;;;1.18;86.33;101061.25;5076345;28;20185;-78
2020/12/26 07:14:40;;;;;;;10.03;9.23;;;;;;;1.18;85.84;101067.25;5076181;28;20217;-78
2020/12/26 07:17:07;;;;;;;12.03;10.97;;;;;;;1.13;85.70;101068.81;5077474;28;20200;-78
2020/12/26 07:19:42;;;;;;;10.63;9.63;;;;;;;1.12;86.08;101063.63;5075516;28;20251;-77
2020/12/26 07:22:14;;;;;;;11.23;10.00;;;;;;;1.02;86.17;101062.47;5074519;28;20192;-77
2020/12/26 07:24:41;;;;;;;11.97;10.77;;;;;;;1.01;85.69;101068.44;5073694;28;20229;-77
2020/12/26 07:27:23;;;;;;;11.67;9.37;;;;;;;0.99;85.62;101063.28;5073774;28;20201;-77
2020/12/26 07:29:51;;;;;;;10.67;9.77;;;;;;;0.95;85.80;101070.81;5071519;28;20228;-77
2020/12/26 07:32:38;;;;;;;10.97;9.87;;;;;;;0.88;85.78;101071.47;5070851;28;20196;-77
2020/12/26 07:35:05;;;;;;;9.80;8.90;;;;;;;0.83;85.47;101071.31;5063102;28;20239;-77
2020/12/26 07:37:31;;;;;;;10.33;9.53;;;;;;;0.89;85.56;101075.78;5068865;28;20207;-76
2020/12/26 07:39:57;;;;;;;12.43;9.70;;;;;;;0.83;85.46;101068.75;5071065;28;20197;-77
2020/12/26 07:42:24;;;;;;;10.97;9.97;;;;;;;0.78;86.41;101084.03;5071826;28;20201;-77
2020/12/26 07:44:50;;;;;;;11.50;10.30;;;;;;;0.82;86.29;101085.00;5069681;28;20704;-77
2020/12/26 07:47:16;;;;;;;10.37;9.40;;;;;;;0.84;85.93;101074.78;5071640;28;20205;-77
2020/12/26 07:49:42;;;;;;;10.00;9.00;;;;;;;0.74;86.56;101064.22;5076263;28;20224;-77
2020/12/26 07:52:09;;;;;;;11.60;9.23;;;;;;;0.84;85.95;101074.78;5075062;28;20646;-78
2020/12/26 07:54:36;;;;;;;9.47;8.67;;;;;;;0.86;86.23;101068.00;5074181;28;20231;-79
2020/12/26 07:57:02;;;;;;;9.00;8.20;;;;;;;0.87;86.29;101070.59;5077266;28;20208;-79
2020/12/26 07:59:29;;;;;;;8.63;7.80;;;;;;;0.88;85.41;101079.19;5078015;28;20197;-77
2020/12/26 08:01:57;;;;;;;8.77;7.97;;;;;;;0.87;86.05;101080.00;5074432;28;20197;-80
2020/12/26 08:04:23;;;;;;;9.50;8.60;;;;;;;0.90;85.74;101090.41;5074759;28;20224;-78
2020/12/26 08:06:51;;;;;;;8.90;8.00;;;;;;;0.89;86.16;101096.34;5072962;28;20207;-78
2020/12/26 08:09:18;;;;;;;10.07;9.07;;;;;;;0.99;86.80;101104.41;5072621;28;20219;-78
2020/12/26 08:11:45;;;;;;;10.17;9.10;;;;;;;1.09;86.64;101092.69;5072657;28;20201;-78
2020/12/26 08:14:13;;;;;;;9.83;8.83;;;;;;;1.15;86.19;101095.47;5070434;28;20228;-77
2020/12/26 08:16:40;;;;;;;9.77;8.73;;;;;;;1.15;87.07;101087.75;5072200;28;20246;-77
2020/12/26 08:19:06;;;;;;;10.30;9.30;;;;;;;1.24;86.27;101089.69;5071573;28;20292;-78
2020/12/26 08:21:32;;;;;;;9.70;8.80;;;;;;;1.23;86.00;101087.97;5072679;28;20197;-78
2020/12/26 08:23:59;;;;;;;9.37;8.53;;;;;;;1.31;86.57;101094.22;5071685;28;20220;-78
2020/12/26 08:26:26;;;;;;;9.77;8.87;;;;;;;1.23;86.11;101084.50;5072899;28;20197;-77
2020/12/26 08:28:55;;;;;;;11.37;9.77;;;;;;;1.34;86.12;101091.72;5071931;28;20208;-77
2020/12/26 08:31:23;;;;;;;11.37;10.37;;;;;;;1.33;85.86;101096.84;5065402;28;20224;-77
2020/12/26 08:33:57;;;;;;;11.13;9.77;;;;;;;1.41;86.17;101099.59;5072899;28;20295;-77
2020/12/26 08:36:27;;;;;;;14.83;9.70;;;;;;;1.42;85.76;101093.63;5071157;28;20193;-77
2020/12/26 08:38:56;;;;;;;11.00;9.90;;;;;;;1.46;85.66;101092.91;5072238;28;20754;-77
2020/12/26 08:41:23;;;;;;;10.30;9.40;;;;;;;1.47;85.90;101097.22;5073469;28;20196;-77
2020/12/26 08:43:49;;;;;;;11.77;10.67;;;;;;;1.52;84.86;101100.78;5072345;28;20224;-77
2020/12/26 08:46:16;;;;;;;10.43;9.43;;;;;;;1.56;85.03;101106.06;5074090;28;20544;-78
2020/12/26 08:48:42;;;;;;;11.03;9.97;;;;;;;1.64;84.58;101095.97;5074401;28;20735;-82
2020/12/26 08:51:17;;;;;;;10.03;9.10;;;;;;;1.71;85.70;101100.47;5072575;28;20224;-77
2020/12/26 08:53:44;;;;;;;12.20;10.90;;;;;;;1.64;85.03;101098.56;5071857;28;20204;-77
2020/12/26 08:56:10;;;;;;;11.80;9.73;;;;;;;1.73;84.86;101098.81;5069799;28;20576;-77
2020/12/26 08:58:36;;;;;;;10.70;9.60;;;;;;;1.77;84.80;101098.06;5087190;28;20204;-76
2020/12/26 09:01:04;;;;;;;10.50;9.60;;;;;;;1.87;84.65;101099.19;5072811;28;20197;-77
2020/12/26 09:03:31;;;;;;;12.50;10.67;;;;;;;1.97;84.19;101098.63;5071816;28;20558;-76
2020/12/26 09:05:59;;;;;;;12.97;10.67;;;;;;;1.98;83.83;101092.66;5069124;28;20228;-76
2020/12/26 09:08:33;;;;;;;13.33;11.23;;;;;;;2.09;83.78;101092.91;5070658;28;20666;-76
2020/12/26 09:11:02;;;;;;;11.47;10.37;;;;;;;2.14;84.02;101085.31;5069527;28;20639;-76
2020/12/26 09:13:33;;;;;;;12.63;11.57;;;;;;;2.18;83.64;101089.69;5070872;28;20675;-76
2020/12/26 09:16:11;;;;;;;11.77;10.77;;;;;;;2.24;83.31;101094.13;5070557;28;20208;-79
2020/12/26 09:18:40;;;;;;;13.73;11.93;;;;;;;2.21;82.84;101087.22;5070288;28;20197;-76
2020/12/26 09:21:07;;;;;;;12.87;11.87;;;;;;;2.22;83.52;101085.50;5070357;28;20205;-76
2020/12/26 09:23:36;;;;;;;13.30;12.10;;;;;;;2.15;83.32;101087.91;5070638;28;20254;-76
2020/12/26 09:26:10;;;;;;;13.50;12.10;;;;;;;2.04;83.34;101091.91;5069003;28;20584;-77
2020/12/26 09:28:45;;;;;;;14.90;13.30;;;;;;;2.07;83.67;101089.44;5077001;28;20666;-76
2020/12/26 09:31:13;;;;;;;13.10;11.90;;;;;;;2.18;84.58;101089.69;5074362;28;20220;-77
2020/12/26 09:33:39;;;;;;;80.20;34.93;;;;;;;2.22;84.06;101095.81;5075304;28;20262;-77
2020/12/26 09:36:06;;;;;;;15.37;13.90;;;;;;;2.34;83.26;101091.84;5073488;28;20232;-77
2020/12/26 09:38:32;;;;;;;15.27;13.97;;;;;;;2.41;83.14;101102.31;5075555;28;20200;-76
2020/12/26 09:41:09;;;;;;;13.07;11.83;;;;;;;2.51;83.22;101094.81;5074957;28;20205;-77
2020/12/26 09:43:35;;;;;;;14.17;12.43;;;;;;;2.62;82.92;101100.25;5083637;28;20206;-76
2020/12/26 09:46:01;;;;;;;15.00;13.60;;;;;;;2.64;82.29;101085.69;5073278;28;20201;-76
2020/12/26 09:48:26;;;;;;;14.67;12.50;;;;;;;2.67;82.22;101084.91;5072663;28;20265;-76
2020/12/26 09:50:52;;;;;;;15.80;14.00;;;;;;;2.76;82.02;101088.56;5070368;28;20754;-76
2020/12/26 09:53:18;;;;;;;14.77;13.60;;;;;;;2.77;81.76;101085.16;5072681;28;20717;-76
2020/12/26 09:55:44;;;;;;;16.67;15.03;;;;;;;2.51;81.71;101089.69;5072109;28;20224;-76
2020/12/26 09:58:11;;;;;;;15.67;14.07;;;;;;;2.58;82.42;101089.00;5073982;28;20197;-76
2020/12/26 10:00:36;;;;;;;16.53;14.93;;;;;;;2.56;81.88;101087.22;5073347;28;20654;-76
2020/12/26 10:03:02;;;;;;;18.00;15.77;;;;;;;2.58;82.53;101078.69;5072378;28;20249;-76
2020/12/26 10:05:28;;;;;;;18.97;15.97;;;;;;;2.59;82.40;101080.41;5072056;28;20690;-77
2020/12/26 10:07:54;;;;;;;18.13;16.30;;;;;;;2.54;82.78;101078.59;5073311;28;20217;-76
2020/12/26 10:10:20;;;;;;;18.83;17.00;;;;;;;2.57;83.32;101073.50;5072165;28;20270;-76
2020/12/26 10:12:46;;;;;;;19.20;17.10;;;;;;;2.56;82.91;101054.59;5073187;28;20315;-77
2020/12/26 10:15:12;;;;;;;18.13;16.20;;;;;;;2.59;83.20;101049.50;5071745;28;20239;-77
2020/12/26 10:17:38;;;;;;;20.47;18.33;;;;;;;2.62;83.34;101055.56;5073897;28;20254;-76
2020/12/26 10:20:04;;;;;;;22.00;18.33;;;;;;;2.71;83.74;101045.47;5072075;28;20233;-75
2020/12/26 10:22:30;;;;;;;25.23;22.83;;;;;;;2.82;83.46;101043.16;5073906;28;20435;-76
2020/12/26 10:24:56;;;;;;;21.63;19.53;;;;;;;2.95;83.47;101040.88;5071883;28;20266;-76
2020/12/26 10:27:21;;;;;;;20.17;18.10;;;;;;;3.03;82.83;101035.84;5071069;28;20277;-76
2020/12/26 10:29:48;;;;;;;19.27;17.27;;;;;;;3.11;82.87;101036.91;5071995;28;20256;-76
2020/12/26 10:32:15;;;;;;;18.53;16.30;;;;;;;3.14;82.00;101041.25;5073286;28;20216;-76
2020/12/26 10:34:41;;;;;;;17.53;15.93;;;;;;;3.08;82.59;101038.56;5073044;28;20641;-77
2020/12/26 10:37:07;;;;;;;20.90;16.60;;;;;;;2.98;82.25;101028.03;5072439;28;20262;-77
2020/12/26 10:39:32;;;;;;;18.03;16.27;;;;;;;3.06;82.12;101025.63;5074020;28;20211;-87
2020/12/26 10:41:58;;;;;;;29.77;22.83;;;;;;;3.06;82.71;101024.75;5076447;28;20224;-85
2020/12/26 10:44:24;;;;;;;16.63;14.93;;;;;;;3.08;82.01;101012.75;5071141;28;20267;-84
2020/12/26 10:46:50;;;;;;;21.70;15.67;;;;;;;3.06;81.79;101012.72;5076169;28;20208;-82
2020/12/26 10:49:17;;;;;;;14.97;13.67;;;;;;;2.94;81.35;101002.16;5074319;28;20228;-81
2020/12/26 10:51:48;;;;;;;17.17;13.70;;;;;;;2.91;81.15;100994.34;5075522;28;20197;-81
2020/12/26 10:54:13;;;;;;;15.57;14.07;;;;;;;3.06;81.41;101001.53;5075010;28;20236;-83
2020/12/26 10:56:45;;;;;;;16.23;14.63;;;;;;;3.23;81.76;100999.28;5076821;28;20204;-84
2020/12/26 10:59:11;;;;;;;16.80;14.33;;;;;;;3.26;81.29;100987.34;5075382;28;20200;-82
2020/12/26 11:01:36;;;;;;;16.20;14.50;;;;;;;3.42;81.15;100990.22;5077040;28;20189;-84
2020/12/26 11:04:02;;;;;;;16.00;14.57;;;;;;;3.46;80.22;100979.09;5076318;28;20244;-83
2020/12/26 11:06:29;;;;;;;15.63;13.73;;;;;;;3.48;80.07;100977.44;5078485;28;20200;-83
2020/12/26 11:08:55;;;;;;;14.47;13.03;;;;;;;3.47;80.09;100979.16;5076249;28;20259;-82
2020/12/26 11:11:21;;;;;;;14.03;12.43;;;;;;;3.39;80.35;100978.13;5078047;28;20220;-82
2020/12/26 11:13:47;;;;;;;15.43;13.53;;;;;;;3.38;80.39;100971.22;5078153;28;20201;-83
2020/12/26 11:16:14;;;;;;;15.40;13.80;;;;;;;3.45;80.73;100975.66;5076514;28;20197;-82
2020/12/26 11:18:42;;;;;;;15.17;13.60;;;;;;;3.52;79.88;100956.00;5077263;28;20205;-85